Time;durP1;ratioP1;P1;durP2;ratioP2;P2;SDS_P1;SDS_P2;PMS_P1;PMS_P2;Temp;Humidity;BMP_temperature;BMP_pressure;BME280_temperature;BME280_humidity;BME280_pressure;Samples;Min_cycle;Max_cycle;Signal;HPM_P1;HPM_P2
2023/08/27 00:01:44;;;;;;;24.00;17.57;;;;;;;;;;5029774;28;20531;-61
2023/08/27 00:04:10;;;;;;;20.70;17.73;;;;;;;;;;5029772;28;20088;-62
2023/08/27 00:06:36;;;;;;;26.03;19.50;;;;;;;;;;5029972;28;20599;-62
2023/08/27 00:09:02;;;;;;;32.17;21.37;;;;;;;;;;5029308;28;20077;-62
2023/08/27 00:11:29;;;;;;;24.27;19.40;;;;;;;;;;5029862;28;20575;-62
2023/08/27 00:13:55;;;;;;;29.40;21.90;;;;;;;;;;5029027;28;20057;-62
2023/08/27 00:16:22;;;;;;;24.13;18.47;;;;;;;;;;5030045;28;20092;-62
2023/08/27 00:18:48;;;;;;;22.33;18.87;;;;;;;;;;5029108;28;20061;-62
2023/08/27 00:21:14;;;;;;;26.53;21.47;;;;;;;;;;5029527;28;20569;-62
2023/08/27 00:23:40;;;;;;;28.17;20.83;;;;;;;;;;5029415;28;20050;-62
2023/08/27 00:26:06;;;;;;;27.00;21.17;;;;;;;;;;5029170;28;20053;-62
2023/08/27 00:28:32;;;;;;;30.60;21.57;;;;;;;;;;5029241;28;20052;-62
2023/08/27 00:31:03;;;;;;;29.17;21.90;;;;;;;;;;5029034;28;20135;-62
2023/08/27 00:33:29;;;;;;;27.77;19.47;;;;;;;;;;5029069;28;20107;-62
2023/08/27 00:35:55;;;;;;;26.27;20.83;;;;;;;;;;5029148;28;20466;-62
2023/08/27 00:38:21;;;;;;;28.80;20.63;;;;;;;;;;5028235;28;20049;-62
2023/08/27 00:40:47;;;;;;;34.83;24.17;;;;;;;;;;5028971;28;20085;-62
2023/08/27 00:43:13;;;;;;;32.50;21.83;;;;;;;;;;5028514;28;20096;-62
2023/08/27 00:45:39;;;;;;;35.33;24.37;;;;;;;;;;5028943;28;20049;-62
2023/08/27 00:48:06;;;;;;;33.13;22.67;;;;;;;;;;5028722;28;20115;-62
2023/08/27 00:50:32;;;;;;;33.57;23.87;;;;;;;;;;5028946;28;20040;-62
2023/08/27 00:52:58;;;;;;;32.60;22.17;;;;;;;;;;5028376;28;20176;-62
2023/08/27 00:55:24;;;;;;;30.87;21.60;;;;;;;;;;5028610;28;20053;-62
2023/08/27 00:57:51;;;;;;;37.43;23.70;;;;;;;;;;5028347;28;20053;-62
2023/08/27 01:00:18;;;;;;;29.97;21.47;;;;;;;;;;5028806;28;20045;-62
2023/08/27 01:02:44;;;;;;;28.53;20.20;;;;;;;;;;5027359;28;20044;-62
2023/08/27 01:05:13;;;;;;;27.07;20.33;;;;;;;;;;5028242;28;20388;-62
2023/08/27 01:07:47;;;;;;;23.57;17.87;;;;;;;;;;5028327;28;20065;-62
2023/08/27 01:10:17;;;;;;;23.67;17.40;;;;;;;;;;5029073;28;20121;-62
2023/08/27 01:12:51;;;;;;;28.53;19.90;;;;;;;;;;5028594;28;20480;-62
2023/08/27 01:15:17;;;;;;;23.80;18.33;;;;;;;;;;5028932;28;20041;-63
2023/08/27 01:17:44;;;;;;;21.53;17.27;;;;;;;;;;5027853;28;20521;-62
2023/08/27 01:20:10;;;;;;;24.20;19.47;;;;;;;;;;5028623;28;20103;-62
2023/08/27 01:22:36;;;;;;;27.90;20.67;;;;;;;;;;5028459;28;20415;-62
2023/08/27 01:25:02;;;;;;;24.20;17.97;;;;;;;;;;5027991;28;20120;-62
2023/08/27 01:27:30;;;;;;;27.10;18.77;;;;;;;;;;5027701;28;20046;-62
2023/08/27 01:30:09;;;;;;;24.60;18.37;;;;;;;;;;5027821;28;20053;-62
2023/08/27 01:32:35;;;;;;;22.03;17.03;;;;;;;;;;5028253;28;20404;-62
2023/08/27 01:35:03;;;;;;;21.77;17.47;;;;;;;;;;5028090;28;20049;-62
2023/08/27 01:37:29;;;;;;;27.30;20.07;;;;;;;;;;5011407;28;20144;-62
2023/08/27 01:39:59;;;;;;;29.47;18.87;;;;;;;;;;5027708;28;20073;-62
2023/08/27 01:42:25;;;;;;;24.00;20.10;;;;;;;;;;5028246;28;20084;-62
2023/08/27 01:44:51;;;;;;;32.27;21.27;;;;;;;;;;5027920;28;20073;-62
2023/08/27 01:47:17;;;;;;;34.77;21.23;;;;;;;;;;5027566;28;20056;-62
2023/08/27 01:49:43;;;;;;;27.37;20.00;;;;;;;;;;5027649;28;20053;-62
2023/08/27 01:52:09;;;;;;;25.37;19.30;;;;;;;;;;5028183;28;20506;-62
2023/08/27 01:54:35;;;;;;;27.90;21.23;;;;;;;;;;5027096;28;20128;-63
2023/08/27 01:57:03;;;;;;;26.67;20.07;;;;;;;;;;5027596;28;20056;-62
2023/08/27 01:59:28;;;;;;;26.10;21.17;;;;;;;;;;5027554;28;20053;-62
2023/08/27 02:01:55;;;;;;;27.90;21.33;;;;;;;;;;5028140;28;20419;-62
2023/08/27 02:04:21;;;;;;;28.93;21.67;;;;;;;;;;5027554;28;20091;-62
2023/08/27 02:06:47;;;;;;;28.63;21.87;;;;;;;;;;5027697;28;20054;-62
2023/08/27 02:09:12;;;;;;;27.23;19.83;;;;;;;;;;5027687;28;20033;-62
2023/08/27 02:11:38;;;;;;;24.97;20.20;;;;;;;;;;5027875;28;20508;-62
2023/08/27 02:14:05;;;;;;;27.27;20.10;;;;;;;;;;5027408;28;20052;-62
2023/08/27 02:16:30;;;;;;;28.53;20.93;;;;;;;;;;5027847;28;20055;-62
2023/08/27 02:18:56;;;;;;;25.87;19.30;;;;;;;;;;5027880;28;20037;-62
2023/08/27 02:21:22;;;;;;;26.90;19.70;;;;;;;;;;5027462;28;20045;-62
2023/08/27 02:23:48;;;;;;;28.20;22.07;;;;;;;;;;5027505;28;20065;-62
2023/08/27 02:26:14;;;;;;;27.87;21.53;;;;;;;;;;5027326;28;20707;-62
2023/08/27 02:28:41;;;;;;;31.00;22.33;;;;;;;;;;5027291;28;20037;-62
2023/08/27 02:31:08;;;;;;;25.80;20.13;;;;;;;;;;5027200;28;20072;-63
2023/08/27 02:33:34;;;;;;;26.10;18.83;;;;;;;;;;5027526;28;20508;-62
2023/08/27 02:36:00;;;;;;;26.67;20.60;;;;;;;;;;5027630;28;20045;-63
2023/08/27 02:38:26;;;;;;;27.13;20.70;;;;;;;;;;5027576;28;20049;-63
2023/08/27 02:40:52;;;;;;;27.53;21.23;;;;;;;;;;5027149;28;20201;-63
2023/08/27 02:43:18;;;;;;;27.40;20.63;;;;;;;;;;5027937;28;20037;-63
2023/08/27 02:45:45;;;;;;;24.90;20.73;;;;;;;;;;5027292;28;20038;-62
2023/08/27 02:48:12;;;;;;;25.90;20.00;;;;;;;;;;5027489;28;20049;-62
2023/08/27 02:50:38;;;;;;;30.47;21.47;;;;;;;;;;5027253;28;20053;-62
2023/08/27 02:53:04;;;;;;;24.60;20.00;;;;;;;;;;5027437;28;20057;-63
2023/08/27 02:55:31;;;;;;;27.33;21.60;;;;;;;;;;5027383;28;20923;-63
2023/08/27 02:57:58;;;;;;;28.80;19.37;;;;;;;;;;5027259;28;20459;-62
2023/08/27 03:00:24;;;;;;;22.30;18.67;;;;;;;;;;5027707;28;20065;-63
2023/08/27 03:02:50;;;;;;;29.70;21.80;;;;;;;;;;5030335;28;20470;-62
2023/08/27 03:05:16;;;;;;;32.40;21.53;;;;;;;;;;5031062;28;20080;-63
2023/08/27 03:07:41;;;;;;;30.57;21.23;;;;;;;;;;5029255;28;20050;-63
2023/08/27 03:10:08;;;;;;;19.33;16.33;;;;;;;;;;5031036;28;20038;-63
2023/08/27 03:12:34;;;;;;;27.57;19.03;;;;;;;;;;5030767;28;20549;-63
2023/08/27 03:15:00;;;;;;;22.67;16.17;;;;;;;;;;5030973;28;20049;-63
2023/08/27 03:17:26;;;;;;;18.30;15.97;;;;;;;;;;5030833;28;20700;-63
2023/08/27 03:19:52;;;;;;;21.13;15.60;;;;;;;;;;5030563;28;20128;-63
2023/08/27 03:22:18;;;;;;;22.77;15.47;;;;;;;;;;5030677;28;20535;-63
2023/08/27 03:24:44;;;;;;;17.80;14.80;;;;;;;;;;5030253;28;20045;-62
2023/08/27 03:27:10;;;;;;;14.20;12.70;;;;;;;;;;5030218;28;20412;-63
2023/08/27 03:29:36;;;;;;;16.07;13.90;;;;;;;;;;5030175;28;20045;-63
2023/08/27 03:32:02;;;;;;;12.50;11.20;;;;;;;;;;5030029;28;20442;-63
2023/08/27 03:34:27;;;;;;;15.77;12.93;;;;;;;;;;5030419;28;20056;-63
2023/08/27 03:36:53;;;;;;;14.20;11.73;;;;;;;;;;5029287;28;20602;-63
2023/08/27 03:39:19;;;;;;;17.27;11.97;;;;;;;;;;5030239;28;20115;-63
2023/08/27 03:41:45;;;;;;;18.70;12.47;;;;;;;;;;5030268;28;20056;-63
2023/08/27 03:44:12;;;;;;;17.77;12.70;;;;;;;;;;5030279;28;20037;-63
2023/08/27 03:46:40;;;;;;;12.93;11.57;;;;;;;;;;5029746;28;20073;-63
2023/08/27 03:49:06;;;;;;;13.47;10.13;;;;;;;;;;5030293;28;20050;-63
2023/08/27 03:51:32;;;;;;;14.60;10.93;;;;;;;;;;5030062;28;20424;-63
2023/08/27 03:53:58;;;;;;;12.57;10.40;;;;;;;;;;5029620;28;20091;-63
2023/08/27 03:56:24;;;;;;;13.67;11.27;;;;;;;;;;5029626;28;20052;-63
2023/08/27 03:58:50;;;;;;;13.30;10.30;;;;;;;;;;5029905;28;20053;-63
2023/08/27 04:01:16;;;;;;;13.57;10.23;;;;;;;;;;5029956;28;20519;-63
2023/08/27 04:03:42;;;;;;;13.83;10.53;;;;;;;;;;5029987;28;20049;-63
2023/08/27 04:06:10;;;;;;;15.83;10.93;;;;;;;;;;5030156;28;20428;-63
2023/08/27 04:08:36;;;;;;;16.23;11.90;;;;;;;;;;5029323;28;20049;-63
2023/08/27 04:11:02;;;;;;;16.00;12.30;;;;;;;;;;5029372;28;20514;-63
2023/08/27 04:13:28;;;;;;;15.87;11.50;;;;;;;;;;5029434;28;20041;-63
2023/08/27 04:16:01;;;;;;;12.23;10.50;;;;;;;;;;5029594;28;20046;-63
2023/08/27 04:18:27;;;;;;;17.13;12.23;;;;;;;;;;5029697;28;20052;-62
2023/08/27 04:20:54;;;;;;;15.63;12.40;;;;;;;;;;5029098;28;20064;-63
2023/08/27 04:23:20;;;;;;;18.97;13.93;;;;;;;;;;5029682;28;20042;-63
2023/08/27 04:25:46;;;;;;;16.73;12.57;;;;;;;;;;5029464;28;20041;-63
2023/08/27 04:28:13;;;;;;;16.17;13.77;;;;;;;;;;5029005;28;20042;-63
2023/08/27 04:30:39;;;;;;;20.97;15.90;;;;;;;;;;5029584;28;20088;-63
2023/08/27 04:33:05;;;;;;;17.20;13.40;;;;;;;;;;5028925;28;20204;-63
2023/08/27 04:35:31;;;;;;;20.53;13.90;;;;;;;;;;5029423;28;20037;-63
2023/08/27 04:37:57;;;;;;;21.53;16.10;;;;;;;;;;5029212;28;20046;-63
2023/08/27 04:40:23;;;;;;;14.67;13.17;;;;;;;;;;5028552;28;21054;-63
2023/08/27 04:42:49;;;;;;;18.50;15.27;;;;;;;;;;5029048;28;20049;-63
2023/08/27 04:45:15;;;;;;;16.63;13.23;;;;;;;;;;5029217;28;20053;-63
2023/08/27 04:47:41;;;;;;;18.47;14.07;;;;;;;;;;5028716;28;20385;-63
2023/08/27 04:50:08;;;;;;;24.23;14.90;;;;;;;;;;5028763;28;20496;-63
2023/08/27 04:52:34;;;;;;;21.23;15.63;;;;;;;;;;5028974;28;20045;-63
2023/08/27 04:55:00;;;;;;;15.70;13.27;;;;;;;;;;5028826;28;20514;-63
2023/08/27 04:57:27;;;;;;;19.57;14.47;;;;;;;;;;5028388;28;20052;-63
2023/08/27 04:59:54;;;;;;;16.40;13.50;;;;;;;;;;5028231;28;20048;-63
2023/08/27 05:02:20;;;;;;;25.00;15.00;;;;;;;;;;5028492;28;20080;-63
2023/08/27 05:04:46;;;;;;;19.83;13.70;;;;;;;;;;5028418;28;20042;-62
2023/08/27 05:07:12;;;;;;;15.50;12.97;;;;;;;;;;5028564;28;20373;-63
2023/08/27 05:09:38;;;;;;;15.57;12.10;;;;;;;;;;5028134;28;20077;-62
2023/08/27 05:12:04;;;;;;;14.40;12.70;;;;;;;;;;5028174;28;20151;-62
2023/08/27 05:14:30;;;;;;;19.33;13.83;;;;;;;;;;5028335;28;20033;-63
2023/08/27 05:16:56;;;;;;;20.23;12.87;;;;;;;;;;5028461;28;20057;-62
2023/08/27 05:19:22;;;;;;;13.77;12.13;;;;;;;;;;5028003;28;20053;-62
2023/08/27 05:21:48;;;;;;;17.07;13.40;;;;;;;;;;5028165;28;20055;-62
2023/08/27 05:24:14;;;;;;;17.07;13.67;;;;;;;;;;5027726;28;20128;-62
2023/08/27 05:26:41;;;;;;;17.07;11.40;;;;;;;;;;5027993;28;20045;-62
2023/08/27 05:29:07;;;;;;;17.87;13.27;;;;;;;;;;5027074;28;20057;-62
2023/08/27 05:31:33;;;;;;;20.90;13.67;;;;;;;;;;5027609;28;20538;-63
2023/08/27 05:33:59;;;;;;;16.60;11.97;;;;;;;;;;5028371;28;20141;-62
2023/08/27 05:36:25;;;;;;;15.60;12.50;;;;;;;;;;5028059;28;20136;-62
2023/08/27 05:38:51;;;;;;;16.97;12.70;;;;;;;;;;5027944;28;20060;-63
2023/08/27 05:41:17;;;;;;;17.30;13.37;;;;;;;;;;5027938;28;20045;-62
2023/08/27 05:43:43;;;;;;;17.77;13.43;;;;;;;;;;5028230;28;20045;-62
2023/08/27 05:46:09;;;;;;;16.63;12.83;;;;;;;;;;5027902;28;20052;-61
2023/08/27 05:48:35;;;;;;;23.87;14.80;;;;;;;;;;5028006;28;20058;-61
2023/08/27 05:51:01;;;;;;;24.20;15.27;;;;;;;;;;5027636;28;20362;-61
2023/08/27 05:53:27;;;;;;;23.87;16.13;;;;;;;;;;5027496;28;20092;-62
2023/08/27 05:55:53;;;;;;;22.63;15.93;;;;;;;;;;5027940;28;20060;-63
2023/08/27 05:58:19;;;;;;;22.37;15.07;;;;;;;;;;5027928;28;20053;-63
2023/08/27 06:00:45;;;;;;;21.47;15.00;;;;;;;;;;5027567;28;20550;-64
2023/08/27 06:03:11;;;;;;;43.20;20.67;;;;;;;;;;5027097;28;20056;-64
2023/08/27 06:05:37;;;;;;;20.93;14.10;;;;;;;;;;5027621;28;20095;-64
2023/08/27 06:08:04;;;;;;;28.20;16.80;;;;;;;;;;5025818;28;20052;-64
2023/08/27 06:10:30;;;;;;;23.20;14.87;;;;;;;;;;5028035;28;20060;-63
2023/08/27 06:12:57;;;;;;;30.73;17.23;;;;;;;;;;5027553;28;20120;-64
2023/08/27 06:15:23;;;;;;;23.93;15.83;;;;;;;;;;5027907;28;20042;-64
2023/08/27 06:17:49;;;;;;;23.17;15.77;;;;;;;;;;5027263;28;20099;-64
2023/08/27 06:20:15;;;;;;;24.60;15.53;;;;;;;;;;5027390;28;20045;-64
2023/08/27 06:22:41;;;;;;;21.30;13.23;;;;;;;;;;5027703;28;20349;-64
2023/08/27 06:25:07;;;;;;;24.00;15.90;;;;;;;;;;5025798;28;20038;-64
2023/08/27 06:27:34;;;;;;;19.90;12.20;;;;;;;;;;5027667;28;20064;-64
2023/08/27 06:30:00;;;;;;;27.87;15.63;;;;;;;;;;5027926;28;20500;-64
2023/08/27 06:32:28;;;;;;;23.63;13.30;;;;;;;;;;5009114;28;20046;-65
2023/08/27 06:34:54;;;;;;;17.40;10.90;;;;;;;;;;5010050;28;20412;-65
2023/08/27 06:37:20;;;;;;;16.83;10.93;;;;;;;;;;5030232;28;20440;-65
2023/08/27 06:39:46;;;;;;;16.90;10.37;;;;;;;;;;5030725;28;20099;-64
2023/08/27 06:42:12;;;;;;;15.07;10.07;;;;;;;;;;5031286;28;20045;-65
2023/08/27 06:44:38;;;;;;;10.33;8.40;;;;;;;;;;5031400;28;20052;-65
2023/08/27 06:47:05;;;;;;;13.00;9.57;;;;;;;;;;5030918;28;20056;-65
2023/08/27 06:49:31;;;;;;;12.37;8.00;;;;;;;;;;5031413;28;20045;-65
2023/08/27 06:51:57;;;;;;;14.20;9.40;;;;;;;;;;5030856;28;20060;-65
2023/08/27 06:54:23;;;;;;;15.27;8.93;;;;;;;;;;5030778;28;20041;-65
2023/08/27 06:56:48;;;;;;;14.23;8.43;;;;;;;;;;5030428;28;20045;-65
2023/08/27 06:59:15;;;;;;;13.27;8.67;;;;;;;;;;5030212;28;20158;-65
2023/08/27 07:01:41;;;;;;;13.70;9.50;;;;;;;;;;5029909;28;20072;-65
2023/08/27 07:04:07;;;;;;;12.90;8.50;;;;;;;;;;5030314;28;20500;-65
2023/08/27 07:06:33;;;;;;;13.20;8.93;;;;;;;;;;5030838;28;20045;-65
2023/08/27 07:09:00;;;;;;;9.80;8.00;;;;;;;;;;5034184;28;20041;-65
2023/08/27 07:11:26;;;;;;;19.13;12.17;;;;;;;;;;5031194;28;20041;-66
2023/08/27 07:13:52;;;;;;;12.70;9.27;;;;;;;;;;5031186;28;20500;-65
2023/08/27 07:16:19;;;;;;;13.90;9.67;;;;;;;;;;5029993;28;20048;-65
2023/08/27 07:18:46;;;;;;;11.83;8.80;;;;;;;;;;5029652;28;20049;-65
2023/08/27 07:21:13;;;;;;;15.40;8.20;;;;;;;;;;5029747;28;20053;-65
2023/08/27 07:23:39;;;;;;;11.97;8.73;;;;;;;;;;5030621;28;20538;-65
2023/08/27 07:26:05;;;;;;;11.53;9.10;;;;;;;;;;5030604;28;20452;-65
2023/08/27 07:28:31;;;;;;;17.30;10.37;;;;;;;;;;5030236;28;21030;-65
2023/08/27 07:30:58;;;;;;;14.10;8.97;;;;;;;;;;5029650;28;20400;-65
2023/08/27 07:33:24;;;;;;;14.73;9.67;;;;;;;;;;5029806;28;20041;-65
2023/08/27 07:35:50;;;;;;;11.53;7.90;;;;;;;;;;5029876;28;20038;-65
2023/08/27 07:38:16;;;;;;;10.47;7.80;;;;;;;;;;5029781;28;20353;-66
2023/08/27 07:40:43;;;;;;;12.67;8.27;;;;;;;;;;5029935;28;20111;-65
2023/08/27 07:43:09;;;;;;;8.37;7.03;;;;;;;;;;5030327;28;20049;-65
2023/08/27 07:45:35;;;;;;;8.30;6.77;;;;;;;;;;5030481;28;20052;-65
2023/08/27 07:48:01;;;;;;;8.80;5.13;;;;;;;;;;5029270;28;20053;-65
2023/08/27 07:50:27;;;;;;;10.67;5.23;;;;;;;;;;5029469;28;20513;-65
2023/08/27 07:52:53;;;;;;;6.27;5.03;;;;;;;;;;5030070;28;20056;-64
2023/08/27 07:55:19;;;;;;;7.10;5.40;;;;;;;;;;5029877;28;20525;-65
2023/08/27 07:57:45;;;;;;;5.57;4.00;;;;;;;;;;5029485;28;20053;-65
2023/08/27 08:00:13;;;;;;;5.60;4.30;;;;;;;;;;5029429;28;20491;-65
2023/08/27 08:02:40;;;;;;;6.43;4.70;;;;;;;;;;5029929;28;20116;-65
2023/08/27 08:05:06;;;;;;;6.90;5.00;;;;;;;;;;5029862;28;20042;-65
2023/08/27 08:07:34;;;;;;;7.67;5.30;;;;;;;;;;5029683;28;20132;-65
2023/08/27 08:10:00;;;;;;;9.07;4.83;;;;;;;;;;5029758;28;21103;-65
2023/08/27 08:12:26;;;;;;;8.93;5.37;;;;;;;;;;5029541;28;20042;-65
2023/08/27 08:14:52;;;;;;;8.63;5.50;;;;;;;;;;5011245;28;20053;-65
2023/08/27 08:17:18;;;;;;;7.37;5.10;;;;;;;;;;5029627;28;20037;-65
2023/08/27 08:19:45;;;;;;;7.03;4.60;;;;;;;;;;5028136;28;20054;-65
2023/08/27 08:22:10;;;;;;;6.47;4.50;;;;;;;;;;5029374;28;20091;-65
2023/08/27 08:24:37;;;;;;;7.63;4.80;;;;;;;;;;5029460;28;20037;-65
2023/08/27 08:27:03;;;;;;;7.73;4.80;;;;;;;;;;5029075;28;20056;-65
2023/08/27 08:29:32;;;;;;;6.40;4.10;;;;;;;;;;5028720;28;20049;-65
2023/08/27 08:31:59;;;;;;;5.23;3.57;;;;;;;;;;5029241;28;20095;-65
2023/08/27 08:34:27;;;;;;;6.10;3.70;;;;;;;;;;5029063;28;20496;-65
2023/08/27 08:36:53;;;;;;;5.67;3.13;;;;;;;;;;5029040;28;20416;-65
2023/08/27 08:39:19;;;;;;;6.00;3.30;;;;;;;;;;5028806;28;20076;-66
2023/08/27 08:41:50;;;;;;;6.53;3.80;;;;;;;;;;5028869;28;20553;-66
2023/08/27 08:44:40;;;;;;;5.73;3.70;;;;;;;;;;5029025;28;20067;-65
2023/08/27 08:47:08;;;;;;;4.53;3.57;;;;;;;;;;5020790;28;20184;-66
2023/08/27 08:49:34;;;;;;;7.03;3.40;;;;;;;;;;5029313;28;20049;-66
2023/08/27 08:52:04;;;;;;;5.37;3.50;;;;;;;;;;5028217;28;20080;-66
2023/08/27 08:54:30;;;;;;;5.90;3.67;;;;;;;;;;5028766;28;20033;-66
2023/08/27 08:57:00;;;;;;;5.50;3.47;;;;;;;;;;5028835;28;20141;-66
2023/08/27 08:59:28;;;;;;;5.47;4.30;;;;;;;;;;5027881;28;20136;-66
2023/08/27 09:01:54;;;;;;;5.40;4.10;;;;;;;;;;5028721;28;20111;-65
2023/08/27 09:04:21;;;;;;;5.43;4.50;;;;;;;;;;5027090;28;20048;-66
2023/08/27 09:06:47;;;;;;;9.47;5.07;;;;;;;;;;5028664;28;20518;-65
2023/08/27 09:09:13;;;;;;;5.80;4.70;;;;;;;;;;5028633;28;20049;-65
2023/08/27 09:11:39;;;;;;;5.57;4.90;;;;;;;;;;5027351;28;20053;-65
2023/08/27 09:14:06;;;;;;;7.23;4.93;;;;;;;;;;5037768;28;20564;-65
2023/08/27 09:16:32;;;;;;;8.60;5.80;;;;;;;;;;5029101;28;20049;-65
2023/08/27 09:18:58;;;;;;;9.30;4.47;;;;;;;;;;5028675;28;20107;-64
2023/08/27 09:21:24;;;;;;;7.87;5.47;;;;;;;;;;5027980;28;20046;-64
2023/08/27 09:23:50;;;;;;;6.80;4.97;;;;;;;;;;5027476;28;20144;-63
2023/08/27 09:26:16;;;;;;;8.40;4.40;;;;;;;;;;5027616;28;20353;-63
2023/08/27 09:28:42;;;;;;;6.33;4.07;;;;;;;;;;5027311;28;20116;-64
2023/08/27 09:31:11;;;;;;;7.27;4.10;;;;;;;;;;5030023;28;20158;-63
2023/08/27 09:33:40;;;;;;;7.13;4.50;;;;;;;;;;5039756;28;20484;-64
2023/08/27 09:36:06;;;;;;;6.47;4.47;;;;;;;;;;5042846;28;20111;-63
2023/08/27 09:38:34;;;;;;;7.17;4.03;;;;;;;;;;5047730;28;20088;-63
2023/08/27 09:41:13;;;;;;;7.37;3.53;;;;;;;;;;5035179;28;20564;-63
2023/08/27 09:43:39;;;;;;;4.27;2.90;;;;;;;;;;5027874;28;20509;-63
2023/08/27 09:46:09;;;;;;;6.23;3.50;;;;;;;;;;5034433;28;20048;-60
2023/08/27 09:48:35;;;;;;;6.77;2.70;;;;;;;;;;5048484;28;20530;-60
2023/08/27 09:51:07;;;;;;;5.60;2.70;;;;;;;;;;5047413;28;20127;-61
2023/08/27 09:53:33;;;;;;;6.10;2.90;;;;;;;;;;5047732;28;20052;-60
2023/08/27 09:55:58;;;;;;;5.53;2.63;;;;;;;;;;5047776;28;20045;-59
2023/08/27 09:58:28;;;;;;;5.33;3.30;;;;;;;;;;5047823;28;20048;-59
2023/08/27 10:00:58;;;;;;;6.30;2.70;;;;;;;;;;5041120;28;20045;-59
2023/08/27 10:03:24;;;;;;;7.70;3.10;;;;;;;;;;5027911;28;20045;-60
2023/08/27 10:05:50;;;;;;;5.60;2.90;;;;;;;;;;5027269;28;20063;-59
2023/08/27 10:08:16;;;;;;;4.83;3.00;;;;;;;;;;5032782;28;20036;-59
2023/08/27 10:10:42;;;;;;;8.13;3.33;;;;;;;;;;5028608;28;20388;-59
2023/08/27 10:13:09;;;;;;;5.07;2.97;;;;;;;;;;5031439;28;20038;-59
2023/08/27 10:15:36;;;;;;;6.97;3.00;;;;;;;;;;5030602;28;20107;-60
2023/08/27 10:18:04;;;;;;;5.70;2.70;;;;;;;;;;5031264;28;20061;-60
2023/08/27 10:20:31;;;;;;;5.50;2.70;;;;;;;;;;5041597;28;20037;-60
2023/08/27 10:22:57;;;;;;;4.17;2.30;;;;;;;;;;5031484;28;20350;-60
2023/08/27 10:25:25;;;;;;;5.97;2.80;;;;;;;;;;5031024;28;20069;-59
2023/08/27 10:27:51;;;;;;;6.63;2.87;;;;;;;;;;5031594;28;20084;-59
2023/08/27 10:30:20;;;;;;;3.37;2.80;;;;;;;;;;5031502;28;20076;-60
2023/08/27 10:32:46;;;;;;;8.83;2.90;;;;;;;;;;5031428;28;20259;-60
2023/08/27 10:35:13;;;;;;;6.27;3.20;;;;;;;;;;5030993;28;20145;-60
2023/08/27 10:37:41;;;;;;;4.63;3.00;;;;;;;;;;5031204;28;20057;-60
2023/08/27 10:40:09;;;;;;;4.87;2.97;;;;;;;;;;5031285;28;20071;-60
2023/08/27 10:42:36;;;;;;;6.17;3.17;;;;;;;;;;5031231;28;20053;-60
2023/08/27 10:45:17;;;;;;;6.80;3.17;;;;;;;;;;5031382;28;20570;-60
2023/08/27 10:48:03;;;;;;;4.57;3.13;;;;;;;;;;5030833;28;20132;-60
2023/08/27 10:50:41;;;;;;;6.10;3.17;;;;;;;;;;5030424;28;20632;-60
2023/08/27 10:53:07;;;;;;;5.87;2.83;;;;;;;;;;5031057;28;20068;-60
2023/08/27 10:55:35;;;;;;;4.37;2.57;;;;;;;;;;5030636;28;20041;-60
2023/08/27 10:58:17;;;;;;;6.93;3.33;;;;;;;;;;5030958;28;20049;-60
2023/08/27 11:01:03;;;;;;;5.87;2.80;;;;;;;;;;5030772;28;20053;-60
2023/08/27 11:03:48;;;;;;;8.27;3.77;;;;;;;;;;5030721;28;20046;-61
2023/08/27 11:06:15;;;;;;;6.77;2.63;;;;;;;;;;5030695;28;20420;-60
2023/08/27 11:08:41;;;;;;;4.93;2.63;;;;;;;;;;5030006;28;20045;-61
2023/08/27 11:11:13;;;;;;;5.93;3.27;;;;;;;;;;5030893;28;20132;-61
2023/08/27 11:13:45;;;;;;;5.03;2.13;;;;;;;;;;5030579;28;21062;-61
2023/08/27 11:16:15;;;;;;;5.63;2.33;;;;;;;;;;5030534;28;20824;-61
2023/08/27 11:18:48;;;;;;;4.80;2.30;;;;;;;;;;5030450;28;20052;-61
2023/08/27 11:21:26;;;;;;;16.27;2.92;;;;;;;;;;5030530;28;20045;-61
2023/08/27 11:24:10;;;;;;;7.30;3.00;;;;;;;;;;5029231;28;20053;-61
2023/08/27 11:26:37;;;;;;;31.97;5.97;;;;;;;;;;5030520;28;20057;-64
2023/08/27 11:29:03;;;;;;;9.73;5.57;;;;;;;;;;5030458;28;20472;-64
2023/08/27 11:31:32;;;;;;;7.23;4.97;;;;;;;;;;5029913;28;20060;-64
2023/08/27 11:33:58;;;;;;;6.30;4.50;;;;;;;;;;5029684;28;20048;-64
2023/08/27 11:36:24;;;;;;;9.87;6.20;;;;;;;;;;5030302;28;20041;-63
2023/08/27 11:38:50;;;;;;;30.07;8.80;;;;;;;;;;5029975;28;20045;-63
2023/08/27 11:41:17;;;;;;;44.57;11.50;;;;;;;;;;5030299;28;20455;-63
2023/08/27 11:43:42;;;;;;;54.67;10.63;;;;;;;;;;5030115;28;20128;-63
2023/08/27 11:46:22;;;;;;;80.40;11.57;;;;;;;;;;5029511;28;20050;-65
2023/08/27 11:48:48;;;;;;;21.23;5.07;;;;;;;;;;5030158;28;20109;-64
2023/08/27 11:51:17;;;;;;;6.80;4.80;;;;;;;;;;5030221;28;20053;-63
2023/08/27 11:53:43;;;;;;;11.23;7.20;;;;;;;;;;5029905;28;20056;-63
2023/08/27 11:56:10;;;;;;;54.20;10.73;;;;;;;;;;5028783;28;20041;-64
2023/08/27 11:58:36;;;;;;;12.67;10.00;;;;;;;;;;5044731;28;20754;-63
2023/08/27 12:01:02;;;;;;;21.00;15.67;;;;;;;;;;5029647;28;20052;-63
2023/08/27 12:03:28;;;;;;;20.00;16.13;;;;;;;;;;5030057;28;20045;-63
2023/08/27 12:05:53;;;;;;;22.30;17.03;;;;;;;;;;5029608;28;20415;-64
2023/08/27 12:08:20;;;;;;;27.43;20.63;;;;;;;;;;5029730;28;20037;-64
2023/08/27 12:10:46;;;;;;;26.37;20.27;;;;;;;;;;5029925;28;20095;-64
2023/08/27 12:13:13;;;;;;;19.67;17.43;;;;;;;;;;5029251;28;20064;-65
2023/08/27 12:15:39;;;;;;;21.83;16.07;;;;;;;;;;5028273;28;20063;-65
2023/08/27 12:18:08;;;;;;;24.20;19.33;;;;;;;;;;5029446;28;20053;-65
2023/08/27 12:20:36;;;;;;;18.40;15.93;;;;;;;;;;5029475;28;20095;-64
2023/08/27 12:23:11;;;;;;;22.17;18.83;;;;;;;;;;5029386;28;20099;-65
2023/08/27 12:25:51;;;;;;;19.90;17.83;;;;;;;;;;5029219;28;20041;-65
2023/08/27 12:28:18;;;;;;;33.17;22.13;;;;;;;;;;5028991;28;20088;-64
2023/08/27 12:30:50;;;;;;;17.07;15.27;;;;;;;;;;5029400;28;20049;-65
2023/08/27 12:33:16;;;;;;;17.30;15.02;;;;;;;;;;5029218;28;20052;-66
2023/08/27 12:35:49;;;;;;;11.57;10.30;;;;;;;;;;5029136;28;20075;-64
2023/08/27 12:38:16;;;;;;;;;;;;;;;;;;5029380;28;20061;-65
2023/08/27 12:40:42;;;;;;;6.47;5.87;;;;;;;;;;5028751;28;19967;-65
2023/08/27 12:43:08;;;;;;;8.30;7.30;;;;;;;;;;5029432;28;20057;-64
2023/08/27 12:45:35;;;;;;;9.57;5.73;;;;;;;;;;5028792;28;20045;-65
2023/08/27 12:48:04;;;;;;;6.30;5.67;;;;;;;;;;5028390;28;20068;-65
2023/08/27 12:50:30;;;;;;;9.73;7.30;;;;;;;;;;5060968;28;20053;-64
2023/08/27 12:52:56;;;;;;;7.40;5.80;;;;;;;;;;5028583;28;20049;-65
2023/08/27 12:55:23;;;;;;;6.13;5.60;;;;;;;;;;5028658;28;20095;-64
2023/08/27 12:57:49;;;;;;;8.40;6.13;;;;;;;;;;5028201;28;20479;-64
2023/08/27 13:00:15;;;;;;;7.20;6.00;;;;;;;;;;5028976;28;20060;-65
2023/08/27 13:02:41;;;;;;;7.87;7.07;;;;;;;;;;5060476;28;20092;-64
2023/08/27 13:05:09;;;;;;;8.20;7.40;;;;;;;;;;5027877;28;20169;-64
2023/08/27 13:07:36;;;;;;;9.67;8.57;;;;;;;;;;5028691;28;20054;-64
2023/08/27 13:10:03;;;;;;;9.30;8.50;;;;;;;;;;5028482;28;20462;-64
2023/08/27 13:12:29;;;;;;;8.37;7.00;;;;;;;;;;5027201;28;20196;-64
2023/08/27 13:14:55;;;;;;;14.90;10.03;;;;;;;;;;5028304;28;20171;-64
2023/08/27 13:17:21;;;;;;;9.50;7.77;;;;;;;;;;5028262;28;20110;-64
2023/08/27 13:19:47;;;;;;;7.03;6.33;;;;;;;;;;5027561;28;20132;-63
2023/08/27 13:22:13;;;;;;;12.87;9.03;;;;;;;;;;5028288;28;20396;-63
2023/08/27 13:24:39;;;;;;;10.07;8.47;;;;;;;;;;5028185;28;20591;-63
2023/08/27 13:27:05;;;;;;;12.40;8.37;;;;;;;;;;5028183;28;20048;-63
2023/08/27 13:29:31;;;;;;;6.80;4.93;;;;;;;;;;5027320;28;20499;-63
2023/08/27 13:31:57;;;;;;;5.27;4.77;;;;;;;;;;5028061;28;20045;-63
2023/08/27 13:34:24;;;;;;;4.70;2.97;;;;;;;;;;5028311;28;20103;-62
2023/08/27 13:36:53;;;;;;;8.30;6.80;;;;;;;;;;5027926;28;20118;-62
2023/08/27 13:39:19;;;;;;;4.50;4.10;;;;;;;;;;5027463;28;20054;-62
2023/08/27 13:41:45;;;;;;;6.30;5.70;;;;;;;;;;5028127;28;20056;-62
2023/08/27 13:44:11;;;;;;;7.87;7.07;;;;;;;;;;5027972;28;20115;-62
2023/08/27 13:46:37;;;;;;;7.30;5.40;;;;;;;;;;5026921;28;20041;-62
2023/08/27 13:49:03;;;;;;;8.87;6.90;;;;;;;;;;5028041;28;20046;-62
2023/08/27 13:51:29;;;;;;;8.83;7.97;;;;;;;;;;5027847;28;20049;-62
2023/08/27 13:53:55;;;;;;;6.40;5.53;;;;;;;;;;5027949;28;20094;-62
2023/08/27 13:56:21;;;;;;;7.93;6.97;;;;;;;;;;5027647;28;20045;-61
2023/08/27 13:58:47;;;;;;;8.63;7.83;;;;;;;;;;5027539;28;20057;-61
2023/08/27 14:01:13;;;;;;;6.97;6.20;;;;;;;;;;5027952;28;20042;-62
2023/08/27 14:03:39;;;;;;;10.33;7.93;;;;;;;;;;5027760;28;20042;-62
2023/08/27 14:06:05;;;;;;;10.43;8.40;;;;;;;;;;5027692;28;20042;-62
2023/08/27 14:08:31;;;;;;;335.90;23.80;;;;;;;;;;5027741;28;20475;-64
2023/08/27 14:10:57;;;;;;;189.40;20.40;;;;;;;;;;5059818;28;20042;-64
2023/08/27 14:13:23;;;;;;;223.33;19.37;;;;;;;;;;5027248;28;20049;-65
2023/08/27 14:15:49;;;;;;;126.97;6.80;;;;;;;;;;5027852;28;20111;-65
2023/08/27 14:18:15;;;;;;;421.63;29.07;;;;;;;;;;5027426;28;20053;-66
2023/08/27 14:20:41;;;;;;;80.20;6.53;;;;;;;;;;5027624;28;20052;-65
2023/08/27 14:23:07;;;;;;;0.30;0.30;;;;;;;;;;5027912;28;20076;-66
2023/08/27 14:25:33;;;;;;;0.10;0.10;;;;;;;;;;5027374;28;20492;-66
2023/08/27 14:27:59;;;;;;;0.07;0.07;;;;;;;;;;5027422;28;20041;-64